CA04 weather

Flying N Ranch Airport
Cottonwood, California, United States

Public forecast

Using degrees Fahrenheit for public forecast. Weather courtesy of forecast.io.

Closest aviation weather report (METAR) to Flying N Ranch Airport

Closest report is Redding Municipal Airport, 10.0 nm (18.5 km) NNE. Retrieved 2019/10/18 13:53 UTC (55 minutes ago):

KRDD 181353Z AUTO 15003KT 10SM SCT055 10/06 A3001 RMK AO2 SLP161 T01000061

Closest aviation forecast (TAF) to Flying N Ranch Airport

Closest forecast is Redding Municipal Airport, 10.0 nm (18.5 km) NNE. Retrieved 2019/10/18 12:27 UTC (2 hours ago):

TAF KRDD 181125Z 1812/1912 VRB03KT P6SM SCT250 FM181500 33004KT P6SM SCT150 OVC200 FM190000 VRB05KT P6SM BKN250 FM190800 20004KT P6SM OVC100